Time;durP1;ratioP1;P1;durP2;ratioP2;P2;SDS_P1;SDS_P2;PMS_P1;PMS_P2;Temp;Humidity;BMP_temperature;BMP_pressure;BME280_temperature;BME280_humidity;BME280_pressure;Samples;Min_cycle;Max_cycle;Signal;HPM_P1;HPM_P2
2023/09/29 00:00:34;;;;;;;6.50;4.57;;;17.00;99.90;;;;;;5047737;28;20025;-59
2023/09/29 00:03:00;;;;;;;5.43;4.47;;;17.00;99.90;;;;;;5046867;28;20033;-58
2023/09/29 00:05:27;;;;;;;6.05;4.30;;;17.10;99.90;;;;;;5050926;28;20032;-59
2023/09/29 00:07:53;;;;;;;8.05;5.03;;;17.00;99.90;;;;;;5046588;28;20446;-59
2023/09/29 00:10:20;;;;;;;6.00;4.40;;;17.10;99.90;;;;;;5048492;28;20936;-58
2023/09/29 00:12:48;;;;;;;4.68;4.13;;;17.10;99.90;;;;;;5028735;28;20408;-58
2023/09/29 00:15:15;;;;;;;5.35;4.60;;;17.00;99.90;;;;;;5048340;28;20104;-59
2023/09/29 00:17:41;;;;;;;5.90;4.15;;;17.10;99.90;;;;;;5029724;28;20017;-58
2023/09/29 00:22:42;;;;;;;4.60;4.03;;;17.10;99.90;;;;;;5049886;28;20021;-57
2023/09/29 00:25:08;;;;;;;6.45;4.55;;;17.10;99.90;;;;;;5046097;28;20028;-58
2023/09/29 00:27:33;;;;;;;6.38;4.75;;;17.10;99.90;;;;;;5049093;28;20025;-58
2023/09/29 00:29:59;;;;;;;7.55;4.95;;;17.10;99.90;;;;;;5044762;28;20021;-60
2023/09/29 00:32:25;;;;;;;6.55;5.00;;;17.10;99.90;;;;;;5042679;28;20039;-57
2023/09/29 00:34:50;;;;;;;5.15;4.65;;;17.10;99.90;;;;;;5046882;28;20104;-58
2023/09/29 00:37:16;;;;;;;7.97;4.65;;;17.10;99.90;;;;;;5047766;28;20040;-59
2023/09/29 00:39:42;;;;;;;7.10;4.35;;;17.10;99.90;;;;;;5033757;28;20471;-60
2023/09/29 00:42:07;;;;;;;4.15;3.75;;;17.10;99.90;;;;;;5045988;28;20027;-60
2023/09/29 00:44:33;;;;;;;6.43;5.38;;;17.10;99.90;;;;;;5050461;28;20052;-59
2023/09/29 00:47:00;;;;;;;6.63;4.63;;;17.10;99.90;;;;;;5045459;28;20031;-58
2023/09/29 00:49:29;;;;;;;7.07;5.07;;;17.10;99.90;;;;;;5048398;28;20024;-57
2023/09/29 00:51:59;;;;;;;7.45;5.45;;;17.10;99.90;;;;;;5029088;28;20031;-58
2023/09/29 00:54:27;;;;;;;6.60;4.78;;;17.10;99.90;;;;;;5028389;28;20029;-60
2023/09/29 00:56:53;;;;;;;5.95;4.40;;;17.10;99.90;;;;;;5047327;28;20017;-59
2023/09/29 00:59:19;;;;;;;5.20;4.70;;;17.10;99.90;;;;;;5044971;28;20497;-58
2023/09/29 01:01:45;;;;;;;8.00;5.03;;;17.10;99.90;;;;;;5044535;28;20322;-58
2023/09/29 01:04:10;;;;;;;4.88;4.32;;;17.10;99.90;;;;;;5044138;28;20086;-59
2023/09/29 01:06:36;;;;;;;5.78;4.63;;;17.10;99.90;;;;;;5031178;28;20476;-59
2023/09/29 01:09:04;;;;;;;6.38;4.43;;;17.10;99.90;;;;;;5027525;28;21036;-59
2023/09/29 01:11:43;;;;;;;5.95;4.47;;;17.10;99.90;;;;;;5046780;28;20044;-59
2023/09/29 01:14:12;;;;;;;5.00;4.00;;;17.10;99.90;;;;;;5043109;28;20094;-60
2023/09/29 01:16:46;;;;;;;5.55;4.53;;;17.10;99.90;;;;;;5047158;28;20021;-59
2023/09/29 01:19:12;;;;;;;5.53;4.63;;;17.10;99.90;;;;;;5048715;28;20096;-59
2023/09/29 01:21:44;;;;;;;4.65;4.25;;;17.10;99.90;;;;;;5045454;28;20021;-59
2023/09/29 01:24:10;;;;;;;5.03;4.03;;;17.10;99.90;;;;;;5045548;28;20029;-59
2023/09/29 01:26:36;;;;;;;5.05;4.13;;;17.10;99.90;;;;;;5045417;28;20037;-59
2023/09/29 01:29:03;;;;;;;5.68;4.22;;;17.10;99.90;;;;;;5046510;28;20268;-59
2023/09/29 01:31:28;;;;;;;7.43;4.82;;;17.10;99.90;;;;;;5045271;28;20775;-58
2023/09/29 01:33:54;;;;;;;5.75;4.10;;;17.10;99.90;;;;;;5047626;28;20099;-59
2023/09/29 01:36:20;;;;;;;8.13;4.93;;;17.10;99.90;;;;;;5048851;28;20025;-59
2023/09/29 01:38:45;;;;;;;4.95;4.20;;;17.10;99.90;;;;;;5030586;28;20024;-58
2023/09/29 01:41:13;;;;;;;6.28;4.95;;;17.00;99.90;;;;;;5047978;28;20035;-58
2023/09/29 01:43:39;;;;;;;6.07;4.35;;;17.10;99.90;;;;;;5045714;28;20135;-59
2023/09/29 01:46:05;;;;;;;4.35;3.90;;;17.00;99.90;;;;;;5046940;28;20025;-58
2023/09/29 01:48:33;;;;;;;5.10;4.28;;;17.10;99.90;;;;;;5048448;28;20028;-59
2023/09/29 01:51:02;;;;;;;7.07;4.35;;;17.00;99.90;;;;;;5045291;28;20033;-59
2023/09/29 01:53:30;;;;;;;5.53;4.25;;;17.00;99.90;;;;;;5044667;28;20446;-59
2023/09/29 01:55:56;;;;;;;4.38;3.97;;;17.00;99.90;;;;;;5042000;28;20108;-58
2023/09/29 01:58:22;;;;;;;4.10;3.80;;;17.00;99.90;;;;;;5044436;28;20017;-59
2023/09/29 02:00:49;;;;;;;4.32;3.70;;;17.00;99.90;;;;;;5043216;28;20104;-59
2023/09/29 02:03:15;;;;;;;4.15;3.65;;;17.00;99.90;;;;;;5047999;28;20035;-56
2023/09/29 02:05:41;;;;;;;8.68;4.35;;;17.00;99.90;;;;;;5051403;28;20032;-59
2023/09/29 02:08:09;;;;;;;6.60;4.65;;;17.00;99.90;;;;;;5048745;28;20037;-58
2023/09/29 02:10:36;;;;;;;5.07;4.40;;;17.00;99.90;;;;;;5045746;28;20241;-58
2023/09/29 02:13:07;;;;;;;8.07;4.28;;;17.00;99.90;;;;;;5047827;28;20032;-59
2023/09/29 02:15:34;;;;;;;5.35;4.30;;;17.00;99.90;;;;;;5032529;28;20032;-59
2023/09/29 02:18:00;;;;;;;4.78;3.85;;;17.00;99.90;;;;;;5053550;28;20028;-60
2023/09/29 02:20:34;;;;;;;4.82;4.32;;;17.00;99.90;;;;;;5049303;28;20017;-59
2023/09/29 02:23:02;;;;;;;6.22;4.65;;;17.00;99.90;;;;;;5035674;28;20566;-59
2023/09/29 02:25:29;;;;;;;5.57;4.32;;;17.00;99.90;;;;;;5048779;28;20028;-58
2023/09/29 02:27:56;;;;;;;5.80;4.75;;;16.90;99.90;;;;;;5050259;28;20369;-59
2023/09/29 02:30:24;;;;;;;4.57;4.10;;;17.00;99.90;;;;;;5047604;28;20164;-57
2023/09/29 02:32:53;;;;;;;5.38;4.70;;;17.00;99.90;;;;;;5050217;28;20480;-58
2023/09/29 02:35:19;;;;;;;6.75;4.40;;;17.00;99.90;;;;;;5053735;28;20009;-59
2023/09/29 02:37:45;;;;;;;6.57;4.07;;;17.00;99.90;;;;;;5048793;28;20404;-58
2023/09/29 02:40:11;;;;;;;6.70;4.20;;;17.00;99.90;;;;;;5051330;28;20024;-58
2023/09/29 02:42:37;;;;;;;6.18;4.70;;;17.00;99.90;;;;;;5048362;28;20424;-59
2023/09/29 02:45:06;;;;;;;5.97;4.55;;;17.00;99.90;;;;;;5032405;28;20351;-59
2023/09/29 02:47:32;;;;;;;5.20;4.50;;;16.90;99.90;;;;;;5050260;28;20029;-59
2023/09/29 02:49:58;;;;;;;5.65;4.65;;;16.90;99.90;;;;;;5048964;28;20035;-59
2023/09/29 02:52:27;;;;;;;5.28;4.25;;;16.90;99.90;;;;;;5048364;28;20036;-60
2023/09/29 02:54:55;;;;;;;8.52;4.80;;;16.90;99.90;;;;;;5050090;28;20025;-57
2023/09/29 02:57:23;;;;;;;5.78;4.30;;;16.90;99.90;;;;;;5047596;28;20027;-57
2023/09/29 02:59:48;;;;;;;5.63;4.18;;;16.90;99.90;;;;;;5049429;28;20095;-60
2023/09/29 03:02:14;;;;;;;6.28;4.70;;;16.90;99.90;;;;;;5048441;28;20021;-59
2023/09/29 03:04:40;;;;;;;7.18;4.75;;;16.90;99.90;;;;;;5052217;28;20056;-59
2023/09/29 03:07:06;;;;;;;5.38;4.28;;;16.90;99.90;;;;;;5047256;28;20029;-59
2023/09/29 03:09:34;;;;;;;7.63;4.88;;;16.90;99.90;;;;;;5049833;28;20021;-59
2023/09/29 03:12:00;;;;;;;8.00;5.18;;;16.90;99.90;;;;;;5048195;28;20070;-59
2023/09/29 03:14:26;;;;;;;6.00;4.45;;;16.90;99.90;;;;;;5046497;28;20021;-58
2023/09/29 03:16:54;;;;;;;5.15;4.75;;;16.90;99.90;;;;;;5053800;28;20032;-59
2023/09/29 03:19:20;;;;;;;5.22;4.70;;;16.90;99.90;;;;;;5047554;28;20028;-59
2023/09/29 03:21:46;;;;;;;7.07;4.88;;;16.90;99.90;;;;;;5052387;28;20025;-58
2023/09/29 03:24:11;;;;;;;5.72;4.57;;;16.80;99.90;;;;;;5047321;28;20020;-59
2023/09/29 03:26:37;;;;;;;5.20;4.70;;;16.90;99.90;;;;;;5049811;28;20458;-59
2023/09/29 03:29:04;;;;;;;5.65;4.78;;;16.80;99.90;;;;;;5047380;28;20055;-59
2023/09/29 03:31:29;;;;;;;8.25;5.10;;;16.80;99.90;;;;;;5046980;28;20045;-59
2023/09/29 03:33:55;;;;;;;6.90;5.57;;;16.80;99.90;;;;;;5053646;28;20865;-58
2023/09/29 03:36:20;;;;;;;6.07;4.65;;;16.80;99.90;;;;;;5047609;28;20025;-59
2023/09/29 03:38:46;;;;;;;7.20;5.30;;;16.80;99.90;;;;;;5051648;28;20035;-59
2023/09/29 03:41:12;;;;;;;6.38;5.30;;;16.80;99.90;;;;;;5046427;28;20043;-59
2023/09/29 03:43:38;;;;;;;7.22;5.22;;;16.80;99.90;;;;;;5049445;28;20013;-59
2023/09/29 03:46:04;;;;;;;6.28;5.40;;;16.80;99.90;;;;;;5046873;28;20047;-59
2023/09/29 03:48:30;;;;;;;5.97;4.93;;;16.70;99.90;;;;;;5050600;28;20493;-59
2023/09/29 03:50:57;;;;;;;5.93;4.43;;;16.70;99.90;;;;;;5047376;28;20112;-57
2023/09/29 03:53:28;;;;;;;5.90;5.03;;;16.70;99.90;;;;;;5049208;28;20025;-58
2023/09/29 03:55:56;;;;;;;6.53;5.70;;;16.70;99.90;;;;;;5047431;28;20501;-59
2023/09/29 03:58:24;;;;;;;6.00;5.40;;;16.70;99.90;;;;;;5048432;28;20029;-59
2023/09/29 04:00:49;;;;;;;6.07;5.43;;;16.70;99.90;;;;;;5045738;28;20037;-59
2023/09/29 04:03:16;;;;;;;5.97;5.38;;;16.70;99.90;;;;;;5046721;28;20061;-59
2023/09/29 04:05:41;;;;;;;6.53;5.35;;;16.70;99.90;;;;;;5050423;28;20029;-59
2023/09/29 04:08:07;;;;;;;7.28;5.45;;;16.60;99.90;;;;;;5046585;28;20036;-59
2023/09/29 04:10:33;;;;;;;5.65;5.05;;;16.60;99.90;;;;;;5049274;28;20088;-59
2023/09/29 04:12:58;;;;;;;6.15;5.13;;;16.60;99.90;;;;;;5050153;28;20601;-59
2023/09/29 04:15:25;;;;;;;6.13;5.53;;;16.60;99.90;;;;;;5052586;28;20138;-60
2023/09/29 04:17:51;;;;;;;5.65;5.10;;;16.60;99.90;;;;;;5045270;28;20397;-59
2023/09/29 04:20:17;;;;;;;7.63;5.80;;;16.60;99.90;;;;;;5046575;28;20013;-59
2023/09/29 04:22:43;;;;;;;6.57;5.88;;;16.60;99.90;;;;;;5050053;28;20044;-57
2023/09/29 04:25:09;;;;;;;6.60;6.00;;;16.60;99.90;;;;;;5046343;28;20578;-59
2023/09/29 04:27:35;;;;;;;6.43;5.82;;;16.60;99.90;;;;;;5048635;28;20052;-59
2023/09/29 04:30:05;;;;;;;6.72;6.03;;;16.60;99.90;;;;;;5045995;28;20378;-56
2023/09/29 04:32:31;;;;;;;6.30;5.70;;;16.60;99.90;;;;;;5047221;28;20021;-57
2023/09/29 04:34:56;;;;;;;7.68;6.43;;;16.60;99.90;;;;;;5050161;28;20032;-57
2023/09/29 04:37:22;;;;;;;7.47;6.70;;;16.60;99.90;;;;;;5046663;28;20573;-58
2023/09/29 04:39:47;;;;;;;7.38;6.55;;;16.60;99.90;;;;;;5031360;28;20028;-59
2023/09/29 04:42:14;;;;;;;7.15;6.22;;;16.60;99.90;;;;;;5045635;28;20025;-57
2023/09/29 04:44:40;;;;;;;8.23;7.07;;;16.60;99.90;;;;;;5048924;28;20130;-58
2023/09/29 04:47:06;;;;;;;7.93;7.13;;;16.60;99.90;;;;;;5046729;28;20066;-58
2023/09/29 04:49:32;;;;;;;7.10;6.40;;;16.60;99.90;;;;;;5045213;28;20020;-59
2023/09/29 04:51:57;;;;;;;8.15;5.80;;;16.60;99.90;;;;;;5046059;28;20048;-56
2023/09/29 04:54:23;;;;;;;10.40;6.70;;;16.50;99.90;;;;;;5048564;28;20500;-59
2023/09/29 04:56:48;;;;;;;7.13;6.47;;;16.50;99.90;;;;;;5047675;28;20124;-58
2023/09/29 04:59:14;;;;;;;7.95;6.90;;;16.50;99.90;;;;;;5046752;28;20375;-59
2023/09/29 05:01:39;;;;;;;7.45;6.57;;;16.50;99.90;;;;;;5044739;28;20044;-56
2023/09/29 05:04:05;;;;;;;9.43;6.13;;;16.50;99.90;;;;;;5045980;28;20041;-58
2023/09/29 05:06:30;;;;;;;8.65;6.45;;;16.50;99.90;;;;;;5046691;28;20330;-59
2023/09/29 05:08:56;;;;;;;8.02;6.28;;;16.50;99.90;;;;;;5043180;28;20039;-60
2023/09/29 05:11:24;;;;;;;7.40;6.28;;;16.50;99.90;;;;;;5051904;28;20028;-57
2023/09/29 05:13:50;;;;;;;7.45;6.60;;;16.50;99.90;;;;;;5046158;28;20489;-59
2023/09/29 05:16:16;;;;;;;6.90;6.20;;;16.50;99.90;;;;;;5046553;28;20028;-57
2023/09/29 05:18:42;;;;;;;7.68;6.88;;;16.50;99.90;;;;;;5046110;28;20041;-58
2023/09/29 05:21:09;;;;;;;7.68;6.78;;;16.50;99.90;;;;;;5045541;28;20029;-59
2023/09/29 05:23:35;;;;;;;7.88;6.57;;;16.50;99.90;;;;;;5049233;28;20138;-58
2023/09/29 05:26:05;;;;;;;6.88;6.25;;;16.50;99.90;;;;;;5045250;28;20513;-58
2023/09/29 05:28:31;;;;;;;8.57;7.22;;;16.50;99.90;;;;;;5047500;28;20035;-59
2023/09/29 05:30:57;;;;;;;7.75;6.97;;;16.50;99.90;;;;;;5046370;28;20025;-58
2023/09/29 05:33:23;;;;;;;7.90;7.07;;;16.50;99.90;;;;;;5048408;28;20021;-58
2023/09/29 05:35:49;;;;;;;10.45;7.55;;;16.50;99.90;;;;;;5051107;28;20361;-57
2023/09/29 05:38:15;;;;;;;8.60;7.15;;;16.50;99.90;;;;;;5045560;28;20050;-59
2023/09/29 05:40:41;;;;;;;8.73;7.38;;;16.50;99.90;;;;;;5048838;28;20127;-59
2023/09/29 05:43:10;;;;;;;8.93;7.07;;;16.50;99.90;;;;;;5043928;28;20099;-56
2023/09/29 05:45:37;;;;;;;8.98;7.60;;;16.50;99.90;;;;;;5045665;28;20247;-58
2023/09/29 05:48:03;;;;;;;8.85;7.45;;;16.50;99.90;;;;;;5049501;28;20534;-58
2023/09/29 05:50:28;;;;;;;6.97;6.43;;;16.50;99.90;;;;;;5043624;28;20045;-58
2023/09/29 05:52:54;;;;;;;8.77;7.82;;;16.50;99.90;;;;;;5047479;28;20082;-58
2023/09/29 05:55:19;;;;;;;7.43;6.72;;;16.40;99.90;;;;;;5044262;28;20049;-58
2023/09/29 05:57:45;;;;;;;9.45;7.35;;;16.40;99.90;;;;;;5047977;28;20025;-58
2023/09/29 06:00:13;;;;;;;9.80;7.03;;;16.40;99.90;;;;;;5026677;28;20017;-58
2023/09/29 06:02:40;;;;;;;7.55;6.60;;;16.40;99.90;;;;;;5069324;22;21392;-58
2023/09/29 06:05:06;;;;;;;9.05;7.53;;;16.40;99.90;;;;;;5030054;28;20408;-54
2023/09/29 06:07:32;;;;;;;9.30;7.35;;;16.40;99.90;;;;;;5044111;28;20025;-54
2023/09/29 06:09:57;;;;;;;9.07;7.07;;;16.40;99.90;;;;;;5047139;28;20131;-54
2023/09/29 06:12:23;;;;;;;7.85;7.10;;;16.40;99.90;;;;;;5044964;28;20071;-53
2023/09/29 06:14:49;;;;;;;7.75;6.88;;;16.40;99.90;;;;;;5045011;28;20033;-56
2023/09/29 06:17:14;;;;;;;7.82;7.10;;;16.40;99.90;;;;;;5043400;28;20030;-54
2023/09/29 06:19:41;;;;;;;8.15;7.35;;;16.40;99.90;;;;;;5042887;28;20254;-55
2023/09/29 06:22:07;;;;;;;8.57;6.90;;;16.40;99.90;;;;;;5029375;28;20036;-54
2023/09/29 06:24:33;;;;;;;10.73;8.05;;;16.50;99.90;;;;;;5043599;28;20033;-57
2023/09/29 06:26:58;;;;;;;10.13;7.45;;;16.50;99.90;;;;;;5043743;28;20025;-51
2023/09/29 06:29:24;;;;;;;8.15;7.45;;;16.50;99.90;;;;;;5045472;28;20340;-57
2023/09/29 06:31:49;;;;;;;7.97;6.95;;;16.60;99.90;;;;;;5049087;28;20489;-54
2023/09/29 06:34:15;;;;;;;8.68;7.10;;;16.60;99.90;;;;;;5047592;28;20025;-52
2023/09/29 06:36:41;;;;;;;9.18;7.82;;;16.60;99.90;;;;;;5043757;28;20009;-51
2023/09/29 06:39:06;;;;;;;8.15;7.35;;;16.60;99.90;;;;;;5042752;28;20489;-52
2023/09/29 06:41:32;;;;;;;8.32;7.53;;;16.60;99.90;;;;;;5043509;28;20056;-54
2023/09/29 06:43:57;;;;;;;10.27;8.27;;;16.70;99.90;;;;;;5025517;28;20120;-53
2023/09/29 06:46:23;;;;;;;10.13;8.90;;;16.70;99.90;;;;;;5043185;28;20384;-55
2023/09/29 06:48:49;;;;;;;8.50;7.63;;;16.70;99.90;;;;;;5042850;28;20025;-55
2023/09/29 06:51:14;;;;;;;8.63;7.70;;;16.70;99.90;;;;;;5045521;28;20017;-55
2023/09/29 06:53:40;;;;;;;7.97;7.18;;;16.70;99.90;;;;;;5047201;28;20482;-54
2023/09/29 06:56:06;;;;;;;10.93;7.35;;;16.80;99.90;;;;;;5046528;28;20028;-52
2023/09/29 06:58:32;;;;;;;9.57;8.00;;;16.80;99.90;;;;;;5046430;28;20051;-52
2023/09/29 07:00:58;;;;;;;11.10;7.70;;;16.80;99.90;;;;;;5046280;28;20394;-55
2023/09/29 07:03:26;;;;;;;9.77;7.95;;;16.80;99.90;;;;;;5045906;28;20481;-55
2023/09/29 07:05:51;;;;;;;11.57;7.72;;;16.90;99.90;;;;;;5028645;28;20036;-51
2023/09/29 07:08:17;;;;;;;9.57;6.25;;;16.90;99.90;;;;;;5046940;28;20051;-52
2023/09/29 07:10:43;;;;;;;9.52;7.85;;;16.90;99.90;;;;;;5051591;28;20099;-54
2023/09/29 07:13:10;;;;;;;8.02;7.22;;;16.90;99.90;;;;;;5046149;28;20097;-53
2023/09/29 07:15:35;;;;;;;8.70;6.90;;;16.90;99.90;;;;;;5026779;28;20017;-57
2023/09/29 07:18:01;;;;;;;8.77;7.53;;;17.00;99.90;;;;;;5045900;28;20025;-57
2023/09/29 07:20:26;;;;;;;8.52;7.80;;;17.00;99.90;;;;;;5031265;28;20338;-52
2023/09/29 07:22:52;;;;;;;12.73;7.80;;;17.10;99.90;;;;;;5046245;28;20051;-57
2023/09/29 07:25:18;;;;;;;8.60;7.75;;;17.10;99.90;;;;;;5046264;28;20114;-55
2023/09/29 07:27:44;;;;;;;7.40;6.13;;;17.20;99.90;;;;;;5046139;28;20021;-58
2023/09/29 07:30:10;;;;;;;7.75;7.03;;;17.20;99.90;;;;;;5027742;28;20036;-57
2023/09/29 07:32:41;;;;;;;8.10;7.30;;;17.20;99.90;;;;;;5045999;28;20021;-52
2023/09/29 07:35:07;;;;;;;9.25;7.32;;;17.20;99.90;;;;;;5045812;28;20401;-55
2023/09/29 07:37:33;;;;;;;8.85;7.53;;;17.30;99.90;;;;;;5049815;28;20475;-56
2023/09/29 07:39:59;;;;;;;9.15;7.18;;;17.30;99.90;;;;;;5045962;28;20160;-57
2023/09/29 07:42:24;;;;;;;8.40;7.55;;;17.30;99.90;;;;;;5045334;28;20029;-56
2023/09/29 07:44:50;;;;;;;7.20;6.47;;;17.30;99.90;;;;;;5045899;28;20036;-54
2023/09/29 07:47:16;;;;;;;8.13;7.15;;;17.30;99.90;;;;;;5045453;28;20449;-54
2023/09/29 07:49:41;;;;;;;9.18;7.70;;;17.30;99.90;;;;;;5045514;28;20136;-53
2023/09/29 07:52:07;;;;;;;9.00;6.40;;;17.40;99.90;;;;;;5027780;28;20616;-56
2023/09/29 07:54:36;;;;;;;7.32;6.53;;;17.40;99.90;;;;;;5045541;28;20021;-55
2023/09/29 07:57:02;;;;;;;8.13;7.28;;;17.50;99.90;;;;;;5045793;28;20040;-52
2023/09/29 07:59:27;;;;;;;8.60;6.68;;;17.50;99.90;;;;;;5044988;28;20037;-55
2023/09/29 08:01:53;;;;;;;7.40;6.63;;;17.50;99.90;;;;;;5045351;28;20155;-51
2023/09/29 08:04:19;;;;;;;12.07;7.47;;;17.60;99.90;;;;;;5045519;28;20071;-52
2023/09/29 08:06:45;;;;;;;8.90;7.78;;;17.60;99.90;;;;;;5045891;28;20407;-56
2023/09/29 08:09:12;;;;;;;8.15;6.65;;;17.70;99.90;;;;;;5045450;28;20083;-55
2023/09/29 08:11:39;;;;;;;8.38;7.03;;;17.70;99.90;;;;;;5045031;28;20416;-55
2023/09/29 08:14:04;;;;;;;8.07;6.53;;;17.70;99.90;;;;;;5045048;28;20033;-55
2023/09/29 08:16:30;;;;;;;7.82;7.00;;;17.80;99.90;;;;;;5044614;28;20036;-56
2023/09/29 08:18:56;;;;;;;7.63;6.85;;;17.80;99.90;;;;;;5044934;28;20032;-56
2023/09/29 08:21:22;;;;;;;8.93;6.88;;;17.80;99.90;;;;;;5044764;28;20086;-53
2023/09/29 08:23:47;;;;;;;7.80;6.75;;;17.80;99.90;;;;;;5045027;28;20024;-54
2023/09/29 08:26:13;;;;;;;9.00;6.95;;;17.90;99.90;;;;;;5044828;28;20501;-54
2023/09/29 08:28:39;;;;;;;9.20;6.78;;;17.90;99.90;;;;;;5044225;28;20029;-58
2023/09/29 08:31:13;;;;;;;7.80;7.00;;;17.90;99.90;;;;;;5044810;28;20033;-55
2023/09/29 08:33:38;;;;;;;11.88;7.00;;;18.00;99.90;;;;;;5044399;28;20552;-56
2023/09/29 08:36:04;;;;;;;7.82;6.53;;;18.00;99.90;;;;;;5045241;28;20128;-55
2023/09/29 08:38:30;;;;;;;8.63;6.55;;;18.00;99.90;;;;;;5044555;28;20032;-53
2023/09/29 08:40:57;;;;;;;9.50;7.07;;;18.10;99.90;;;;;;5045788;28;20536;-52
2023/09/29 08:43:27;;;;;;;8.70;6.20;;;18.10;99.90;;;;;;5043828;28;20204;-56
2023/09/29 08:45:58;;;;;;;11.10;8.18;;;18.10;99.90;;;;;;5044922;28;20021;-52
2023/09/29 08:48:25;;;;;;;9.65;6.78;;;18.20;99.90;;;;;;5043900;28;20108;-54
2023/09/29 08:50:55;;;;;;;9.23;6.97;;;18.30;99.90;;;;;;5044278;28;20036;-52
2023/09/29 08:53:23;;;;;;;9.68;6.55;;;18.40;99.90;;;;;;5044231;28;20021;-56
2023/09/29 08:55:50;;;;;;;8.70;6.95;;;18.40;99.90;;;;;;5045341;28;20102;-57
2023/09/29 08:58:16;;;;;;;8.85;6.43;;;18.50;99.90;;;;;;5044498;28;20389;-56
2023/09/29 09:00:41;;;;;;;9.30;6.15;;;18.50;99.90;;;;;;5044583;28;20029;-55
2023/09/29 09:03:07;;;;;;;8.23;6.50;;;18.50;99.90;;;;;;5043677;28;20041;-53
2023/09/29 09:05:32;;;;;;;12.10;5.90;;;18.50;99.90;;;;;;5044088;28;20059;-59
2023/09/29 09:08:01;;;;;;;7.13;5.57;;;18.50;99.90;;;;;;5046649;28;20117;-55
2023/09/29 09:10:31;;;;;;;9.23;5.93;;;18.50;99.90;;;;;;5043700;28;20058;-56
2023/09/29 09:12:57;;;;;;;6.88;5.55;;;18.40;99.90;;;;;;5043389;28;20508;-57
2023/09/29 09:15:25;;;;;;;9.30;5.20;;;18.40;99.90;;;;;;5044206;28;20021;-53
2023/09/29 09:17:51;;;;;;;9.38;5.55;;;18.40;99.90;;;;;;5046302;28;20040;-58
2023/09/29 09:20:18;;;;;;;7.22;5.55;;;18.40;99.90;;;;;;5044679;28;20178;-57
2023/09/29 09:22:44;;;;;;;8.45;6.00;;;18.50;99.90;;;;;;5044536;28;20528;-54
2023/09/29 09:25:12;;;;;;;10.95;6.18;;;18.40;99.90;;;;;;5042343;28;20324;-56
2023/09/29 09:27:38;;;;;;;7.70;6.30;;;18.50;99.90;;;;;;5044233;28;20044;-57
2023/09/29 09:30:05;;;;;;;7.78;6.20;;;18.50;99.90;;;;;;5043926;28;20138;-53
2023/09/29 09:32:32;;;;;;;7.43;6.32;;;18.50;99.90;;;;;;5043653;28;20045;-56
2023/09/29 09:34:58;;;;;;;11.48;6.07;;;18.60;99.90;;;;;;5044617;28;20061;-54
2023/09/29 09:37:28;;;;;;;7.78;5.80;;;18.60;99.90;;;;;;5043473;28;20065;-57
2023/09/29 09:39:59;;;;;;;8.07;5.82;;;18.60;99.90;;;;;;5031304;28;20060;-56
2023/09/29 09:42:26;;;;;;;9.32;6.68;;;18.70;99.90;;;;;;5045628;28;20036;-55
2023/09/29 09:44:56;;;;;;;6.85;5.57;;;18.80;99.90;;;;;;5042956;28;20139;-57
2023/09/29 09:47:26;;;;;;;5.53;4.95;;;18.70;99.90;;;;;;5043377;28;20025;-53
2023/09/29 09:49:55;;;;;;;8.75;5.70;;;18.80;99.90;;;;;;5043428;28;20091;-56
2023/09/29 09:52:25;;;;;;;8.23;6.07;;;18.80;99.90;;;;;;5043203;28;20040;-58
2023/09/29 09:54:56;;;;;;;8.25;5.90;;;18.90;99.90;;;;;;5043546;28;20447;-53
2023/09/29 09:57:30;;;;;;;6.15;5.55;;;18.90;99.90;;;;;;5043527;28;20025;-58
2023/09/29 10:00:00;;;;;;;6.70;5.80;;;18.90;99.90;;;;;;5043502;28;20072;-54
2023/09/29 10:02:27;;;;;;;6.90;5.40;;;18.90;99.90;;;;;;5046077;28;20549;-56
2023/09/29 10:04:54;;;;;;;6.40;5.13;;;18.90;99.90;;;;;;5044422;28;20039;-55
2023/09/29 10:07:21;;;;;;;7.93;5.38;;;18.90;99.90;;;;;;5043606;28;20051;-56
2023/09/29 10:09:49;;;;;;;7.78;5.38;;;18.90;99.90;;;;;;5042921;28;20021;-54
2023/09/29 10:12:31;;;;;;;6.55;5.20;;;19.00;99.90;;;;;;5043926;28;20045;-54
2023/09/29 10:14:58;;;;;;;6.85;4.78;;;19.00;99.90;;;;;;5043134;28;20025;-55
2023/09/29 10:17:24;;;;;;;6.30;5.70;;;19.10;99.90;;;;;;5043571;28;20021;-58
2023/09/29 10:19:54;;;;;;;6.00;5.10;;;19.20;99.90;;;;;;5043550;28;20179;-56
2023/09/29 10:22:29;;;;;;;5.50;5.00;;;19.40;99.90;;;;;;5028679;28;20191;-50
2023/09/29 10:24:56;;;;;;;6.80;5.03;;;19.40;99.90;;;;;;5046434;28;20033;-57
2023/09/29 10:27:31;;;;;;;6.35;4.88;;;19.50;99.90;;;;;;5050086;28;20029;-55
2023/09/29 10:30:16;;;;;;;6.47;4.93;;;19.60;99.90;;;;;;5046366;28;20029;-55
2023/09/29 10:32:43;;;;;;;5.30;4.38;;;19.70;99.90;;;;;;5047031;28;20025;-55
2023/09/29 10:35:18;;;;;;;6.45;5.45;;;19.70;99.90;;;;;;5047515;28;20063;-58
2023/09/29 10:37:56;;;;;;;5.68;4.65;;;19.80;99.90;;;;;;5047668;28;20078;-58
2023/09/29 10:40:31;;;;;;;4.80;4.15;;;19.80;99.90;;;;;;5046757;28;20069;-55
2023/09/29 10:43:01;;;;;;;4.93;3.78;;;19.90;99.90;;;;;;5047405;28;20469;-58
2023/09/29 10:45:31;;;;;;;5.18;4.07;;;19.90;99.90;;;;;;5030491;28;20124;-56
2023/09/29 10:48:02;;;;;;;5.38;4.40;;;20.00;99.90;;;;;;5047063;28;20104;-55
2023/09/29 10:50:28;;;;;;;5.72;4.10;;;20.10;99.90;;;;;;5046039;28;20028;-55
2023/09/29 10:52:55;;;;;;;3.80;3.40;;;20.10;99.90;;;;;;5046628;28;20036;-53
2023/09/29 10:55:21;;;;;;;7.35;4.40;;;20.20;99.90;;;;;;5046650;28;20047;-57
2023/09/29 10:57:46;;;;;;;5.07;3.95;;;20.30;99.90;;;;;;5046464;28;20455;-54
2023/09/29 11:00:14;;;;;;;4.75;4.20;;;20.30;99.90;;;;;;5029846;28;20013;-56
2023/09/29 11:02:40;;;;;;;4.85;4.10;;;20.30;99.90;;;;;;5046423;28;20037;-54
2023/09/29 11:05:10;;;;;;;5.97;4.10;;;20.30;99.90;;;;;;5046883;28;20021;-54
2023/09/29 11:07:50;;;;;;;4.57;3.83;;;20.30;99.90;;;;;;5046552;28;20041;-55
2023/09/29 11:10:22;;;;;;;3.83;3.45;;;20.30;99.90;;;;;;5044958;28;20021;-53
2023/09/29 11:12:49;;;;;;;5.20;3.53;;;20.30;99.90;;;;;;5028122;28;20021;-48
2023/09/29 11:15:16;;;;;;;10.07;5.28;;;20.30;99.90;;;;;;5047310;28;20032;-51
2023/09/29 11:17:45;;;;;;;7.93;5.00;;;20.30;99.90;;;;;;5046717;28;20056;-50
2023/09/29 11:20:29;;;;;;;5.20;4.55;;;20.30;99.90;;;;;;5045811;28;20345;-50
2023/09/29 11:23:11;;;;;;;4.65;3.90;;;20.30;99.90;;;;;;5046369;28;20388;-49
2023/09/29 11:25:51;;;;;;;5.40;3.95;;;20.30;99.90;;;;;;5048745;28;20033;-50
2023/09/29 11:28:17;;;;;;;4.90;3.42;;;20.30;99.90;;;;;;5045911;28;20021;-56
2023/09/29 11:30:44;;;;;;;5.78;3.65;;;20.30;99.90;;;;;;5048223;28;20028;-51
2023/09/29 11:33:15;;;;;;;4.45;3.10;;;20.30;99.90;;;;;;5044576;28;20036;-53
2023/09/29 11:35:47;;;;;;;6.35;3.30;;;20.30;99.90;;;;;;5045563;28;20013;-52
2023/09/29 11:38:20;;;;;;;4.05;3.28;;;20.30;99.90;;;;;;5046382;28;20021;-49
2023/09/29 11:40:50;;;;;;;2.97;2.67;;;20.40;99.90;;;;;;5044122;28;20070;-52
2023/09/29 11:43:16;;;;;;;4.32;3.20;;;20.40;99.90;;;;;;5045687;28;20183;-51
2023/09/29 11:45:42;;;;;;;4.20;3.10;;;20.40;99.90;;;;;;5045872;28;20013;-51
2023/09/29 11:48:08;;;;;;;5.28;2.60;;;20.40;99.90;;;;;;5049326;28;20120;-52
2023/09/29 11:50:37;;;;;;;6.05;3.03;;;20.40;99.90;;;;;;5046038;28;20078;-50
2023/09/29 11:53:06;;;;;;;3.58;3.25;;;20.40;99.90;;;;;;5045752;28;20013;-50
2023/09/29 11:55:38;;;;;;;5.97;2.70;;;20.50;99.90;;;;;;5045270;28;20621;-50
2023/09/29 11:58:04;;;;;;;3.88;2.92;;;20.60;99.90;;;;;;5045658;28;20094;-49
2023/09/29 12:00:30;;;;;;;4.18;3.08;;;20.60;99.90;;;;;;5028658;28;20186;-52
2023/09/29 12:02:56;;;;;;;6.32;2.90;;;20.60;99.90;;;;;;5045469;28;20037;-54
2023/09/29 12:05:21;;;;;;;2.95;2.20;;;20.70;99.90;;;;;;5046100;28;20021;-50
2023/09/29 12:07:47;;;;;;;7.63;4.70;;;20.80;99.90;;;;;;5046555;28;20029;-53
2023/09/29 12:10:13;;;;;;;3.92;2.88;;;20.80;99.90;;;;;;5044990;28;20033;-53
2023/09/29 12:12:39;;;;;;;3.20;2.58;;;20.80;99.90;;;;;;5045739;28;20013;-49
2023/09/29 12:15:06;;;;;;;8.55;3.10;;;20.90;99.90;;;;;;5045128;28;20393;-50
2023/09/29 12:17:31;;;;;;;4.13;2.72;;;21.00;99.90;;;;;;5045538;28;20338;-50
2023/09/29 12:19:57;;;;;;;3.70;2.33;;;21.10;99.90;;;;;;5044558;28;20029;-55
2023/09/29 12:22:23;;;;;;;4.07;2.60;;;21.10;99.90;;;;;;5045992;28;20029;-55
2023/09/29 12:24:49;;;;;;;4.43;2.75;;;21.20;99.90;;;;;;5044851;28;20365;-54
2023/09/29 12:27:15;;;;;;;5.53;2.75;;;21.20;99.90;;;;;;5028805;28;20025;-54
2023/09/29 12:29:41;;;;;;;3.30;2.30;;;21.20;99.90;;;;;;5045903;28;20032;-52
2023/09/29 12:32:06;;;;;;;3.08;2.53;;;21.30;99.90;;;;;;5044335;28;20509;-53
2023/09/29 12:34:34;;;;;;;3.05;2.65;;;21.30;99.90;;;;;;5044913;28;20028;-53
2023/09/29 12:37:01;;;;;;;3.25;2.58;;;21.30;99.90;;;;;;5044477;28;20082;-55
2023/09/29 12:39:27;;;;;;;4.57;2.72;;;21.30;99.90;;;;;;5044025;28;20033;-57
2023/09/29 12:41:53;;;;;;;3.53;2.55;;;21.30;99.90;;;;;;5048080;28;20122;-53
2023/09/29 12:44:18;;;;;;;6.22;2.72;;;21.30;99.90;;;;;;5042890;28;20033;-50
2023/09/29 12:46:45;;;;;;;2.60;2.38;;;21.30;99.90;;;;;;5044686;28;20029;-56